Time;durP1;ratioP1;P1;durP2;ratioP2;P2;SDS_P1;SDS_P2;PMS_P1;PMS_P2;Temp;Humidity;BMP_temperature;BMP_pressure;BME280_temperature;BME280_humidity;BME280_pressure;Samples;Min_cycle;Max_cycle;Signal;HPM_P1;HPM_P2
2022/10/26 00:00:27;;;;;;;16.00;10.48;;;;;;;7.34;100.00;154373.88;5000658;28;20061;-74
2022/10/26 00:02:54;;;;;;;19.13;9.48;;;;;;;7.29;100.00;154361.06;4987627;28;20494;-73
2022/10/26 00:05:20;;;;;;;17.00;10.30;;;;;;;7.24;100.00;154349.56;5005213;28;20104;-72
2022/10/26 00:07:46;;;;;;;16.65;9.98;;;;;;;7.25;100.00;154350.81;5017663;28;20034;-74
2022/10/26 00:10:12;;;;;;;18.90;9.95;;;;;;;7.26;100.00;154353.41;5005030;28;20088;-73
2022/10/26 00:12:38;;;;;;;18.73;10.43;;;;;;;7.25;100.00;154352.09;5000731;28;20046;-74
2022/10/26 00:15:05;;;;;;;13.82;9.73;;;;;;;7.27;100.00;154355.94;4991077;28;20483;-74
2022/10/26 00:17:31;;;;;;;18.13;10.70;;;;;;;7.36;100.00;154379.00;4999441;28;20455;-74
2022/10/26 00:19:57;;;;;;;15.32;11.13;;;;;;;7.50;100.00;154414.84;4995429;28;20052;-74
2022/10/26 00:22:22;;;;;;;18.08;10.70;;;;;;;7.54;100.00;154423.81;4986398;28;20100;-74
2022/10/26 00:24:48;;;;;;;15.38;9.55;;;;;;;7.45;100.00;154400.78;4987752;28;20038;-74
2022/10/26 00:27:14;;;;;;;12.65;9.38;;;;;;;7.40;100.00;154390.53;4998044;28;20049;-74
2022/10/26 00:29:39;;;;;;;13.85;9.95;;;;;;;7.32;100.00;154368.75;4978434;28;20530;-75
2022/10/26 00:32:05;;;;;;;15.50;11.15;;;;;;;7.25;100.00;154352.09;5009943;28;20044;-74
2022/10/26 00:34:31;;;;;;;14.00;10.32;;;;;;;7.27;100.00;154357.25;5006273;28;20084;-74
2022/10/26 00:36:57;;;;;;;18.90;11.73;;;;;;;7.24;100.00;154349.56;5001913;28;20150;-74
2022/10/26 00:39:23;;;;;;;16.33;11.07;;;;;;;7.23;100.00;154346.97;4994024;28;20022;-74
2022/10/26 00:41:48;;;;;;;15.20;10.63;;;;;;;7.24;100.00;154349.56;5006778;28;20042;-74
2022/10/26 00:44:45;;;;;;;15.60;10.10;;;;;;;7.21;100.00;154343.19;5007406;28;20096;-73
2022/10/26 00:47:13;;;;;;;13.48;10.10;;;;;;;7.15;100.00;154326.50;4995717;28;20038;-73
2022/10/26 00:49:39;;;;;;;17.88;10.57;;;;;;;7.10;100.00;154315.03;5035657;28;20109;-74
2022/10/26 00:52:05;;;;;;;15.23;10.43;;;;;;;7.07;100.00;154307.31;5000843;28;20188;-74
2022/10/26 00:54:32;;;;;;;16.95;10.45;;;;;;;7.02;100.00;154295.78;5023744;28;20129;-74
2022/10/26 00:56:58;;;;;;;15.70;10.50;;;;;;;7.00;100.00;154289.38;4984419;28;20103;-73
2022/10/26 00:59:24;;;;;;;16.17;10.00;;;;;;;7.00;100.00;154289.38;4989953;28;20487;-75
2022/10/26 01:01:50;;;;;;;13.35;9.80;;;;;;;6.96;100.00;154279.16;5006731;28;20044;-72
2022/10/26 01:04:17;;;;;;;17.15;9.95;;;;;;;6.93;100.00;154271.47;5006224;28;20049;-73
2022/10/26 01:06:44;;;;;;;19.30;10.18;;;;;;;6.93;100.00;154271.47;4982455;28;20042;-73
2022/10/26 01:09:11;;;;;;;17.30;11.02;;;;;;;6.92;100.00;154270.19;5016901;28;20121;-73
2022/10/26 01:11:36;;;;;;;20.15;10.80;;;;;;;6.92;100.00;154270.19;5016118;28;20206;-73
2022/10/26 01:14:06;;;;;;;13.38;9.95;;;;;;;6.93;100.00;154272.78;5008561;28;20034;-72
2022/10/26 01:17:01;;;;;;;21.40;11.23;;;;;;;6.92;100.00;154268.94;4995963;28;20431;-73
2022/10/26 01:19:56;;;;;;;17.35;10.30;;;;;;;6.91;100.00;154266.34;4989468;28;20045;-73
2022/10/26 01:22:28;;;;;;;17.38;11.80;;;;;;;6.94;100.00;154274.03;5006422;28;20140;-73
2022/10/26 01:25:28;;;;;;;20.88;10.82;;;;;;;6.95;100.00;154277.88;5004284;28;20044;-73
2022/10/26 01:27:55;;;;;;;17.33;12.43;;;;;;;6.92;100.00;154268.94;5002405;28;20042;-74
2022/10/26 01:30:43;;;;;;;20.85;11.70;;;;;;;6.90;100.00;154263.81;4990251;28;20046;-72
2022/10/26 01:33:25;;;;;;;23.30;13.52;;;;;;;7.07;100.00;154307.31;4983325;28;20026;-74
2022/10/26 01:36:09;;;;;;;22.75;12.80;;;;;;;7.15;100.00;154327.78;5006358;28;20049;-73
2022/10/26 01:38:57;;;;;;;22.92;13.27;;;;;;;7.09;100.00;154311.16;5003026;28;20571;-75
2022/10/26 01:41:34;;;;;;;23.30;12.75;;;;;;;7.11;100.00;154317.56;5005661;28;20798;-75
2022/10/26 01:44:25;;;;;;;21.85;13.57;;;;;;;7.10;100.00;154313.69;5006789;28;20530;-74
2022/10/26 01:46:52;;;;;;;22.70;13.73;;;;;;;7.12;100.00;154320.13;5001483;28;20375;-75
2022/10/26 01:49:24;;;;;;;18.35;12.43;;;;;;;7.18;100.00;154335.47;5011167;28;20109;-75
2022/10/26 01:51:50;;;;;;;20.83;13.45;;;;;;;7.13;100.00;154322.66;5007286;28;20318;-72
2022/10/26 01:54:16;;;;;;;23.23;14.32;;;;;;;7.22;100.00;154345.72;5020829;28;20037;-74
2022/10/26 01:56:46;;;;;;;19.83;13.15;;;;;;;7.27;100.00;154357.25;4990475;28;20493;-73
2022/10/26 01:59:16;;;;;;;23.13;13.15;;;;;;;7.26;100.00;154354.69;4988789;28;20034;-73
2022/10/26 02:01:50;;;;;;;21.20;12.50;;;;;;;7.26;100.00;154353.41;5005943;28;20069;-73
2022/10/26 02:04:37;;;;;;;20.75;13.52;;;;;;;7.23;100.00;154346.97;4988036;28;20403;-73
2022/10/26 02:07:16;;;;;;;23.15;12.57;;;;;;;7.25;100.00;154352.09;5018278;28;20041;-73
2022/10/26 02:10:01;;;;;;;20.67;12.32;;;;;;;7.25;100.00;154350.81;5005661;28;20061;-71
2022/10/26 02:12:42;;;;;;;21.67;13.30;;;;;;;7.18;100.00;154335.47;4983396;28;20673;-71
2022/10/26 02:15:21;;;;;;;17.55;11.65;;;;;;;7.16;100.00;154329.09;5001510;28;20042;-73
2022/10/26 02:17:52;;;;;;;18.83;11.80;;;;;;;7.10;100.00;154313.69;4986802;28;20100;-72
2022/10/26 02:20:30;;;;;;;20.93;11.87;;;;;;;7.02;100.00;154295.78;5004947;28;20036;-75
2022/10/26 02:23:00;;;;;;;19.20;11.70;;;;;;;7.02;100.00;154295.78;5003621;28;20080;-73
2022/10/26 02:25:29;;;;;;;16.92;11.73;;;;;;;7.04;100.00;154298.34;5005811;28;20033;-73
2022/10/26 02:28:01;;;;;;;13.65;11.15;;;;;;;7.02;100.00;154295.78;4993581;28;20049;-73
2022/10/26 02:30:27;;;;;;;20.20;11.63;;;;;;;6.98;100.00;154285.53;5019758;28;20078;-73
2022/10/26 02:32:56;;;;;;;19.55;12.88;;;;;;;7.00;100.00;154289.38;4989734;28;20026;-73
2022/10/26 02:35:27;;;;;;;24.00;12.60;;;;;;;7.03;100.00;154297.09;5013852;28;20037;-73
2022/10/26 02:37:56;;;;;;;17.70;12.07;;;;;;;7.01;100.00;154291.97;5001357;28;20044;-73
2022/10/26 02:40:25;;;;;;;15.68;11.38;;;;;;;7.04;100.00;154299.63;5001809;28;20022;-73
2022/10/26 02:42:52;;;;;;;18.27;11.68;;;;;;;7.04;100.00;154298.34;4985079;28;20081;-73
2022/10/26 02:45:25;;;;;;;20.83;12.15;;;;;;;7.04;100.00;154299.63;5004361;28;20037;-74
2022/10/26 02:47:53;;;;;;;20.67;11.98;;;;;;;7.03;100.00;154297.09;4984870;28;20137;-73
2022/10/26 02:50:25;;;;;;;20.52;12.40;;;;;;;7.05;100.00;154302.19;5007050;28;20117;-73
2022/10/26 02:53:35;;;;;;;20.33;11.85;;;;;;;7.09;100.00;154312.44;4987580;28;21546;-73
2022/10/26 02:56:10;;;;;;;17.45;11.60;;;;;;;7.05;100.00;154300.94;5000299;28;20495;-72
2022/10/26 02:58:41;;;;;;;24.02;13.93;;;;;;;7.10;100.00;154313.69;5020001;28;20036;-73
2022/10/26 03:01:07;;;;;;;21.45;13.55;;;;;;;7.15;100.00;154326.50;5023492;28;20029;-71
2022/10/26 03:03:33;;;;;;;26.65;14.15;;;;;;;7.15;100.00;154327.78;4991367;28;20399;-73
2022/10/26 03:05:58;;;;;;;20.40;13.45;;;;;;;7.18;100.00;154334.22;4997658;28;20514;-73
2022/10/26 03:08:24;;;;;;;24.60;13.73;;;;;;;7.17;100.00;154332.91;5001235;28;20030;-73
2022/10/26 03:10:49;;;;;;;16.83;12.55;;;;;;;7.15;100.00;154327.78;5001595;28;20509;-73
2022/10/26 03:13:15;;;;;;;22.80;12.45;;;;;;;7.12;100.00;154320.13;5020052;28;20376;-74
2022/10/26 03:15:41;;;;;;;35.20;13.68;;;;;;;7.09;100.00;154311.16;5005073;28;20041;-75
2022/10/26 03:18:07;;;;;;;16.27;13.20;;;;;;;7.06;100.00;154304.75;4985527;28;20136;-72
2022/10/26 03:20:33;;;;;;;22.40;14.35;;;;;;;7.07;100.00;154307.31;4986255;28;20378;-73
2022/10/26 03:22:58;;;;;;;16.95;12.75;;;;;;;6.99;100.00;154288.13;5013200;28;20058;-75
2022/10/26 03:25:25;;;;;;;22.83;13.00;;;;;;;6.97;100.00;154283.00;5000524;28;20092;-73
2022/10/26 03:28:02;;;;;;;19.52;13.48;;;;;;;6.96;100.00;154280.44;5018080;28;20128;-73
2022/10/26 03:30:29;;;;;;;45.13;14.20;;;;;;;6.88;100.00;154259.97;5003681;28;20037;-74
2022/10/26 03:32:55;;;;;;;15.63;12.77;;;;;;;6.87;100.00;154257.38;4981847;28;20041;-74
2022/10/26 03:35:21;;;;;;;95.38;13.55;;;;;;;6.89;100.00;154261.22;4994345;28;20422;-73
2022/10/26 03:37:46;;;;;;;13.68;11.68;;;;;;;6.87;100.00;154256.13;4997689;28;20554;-73
2022/10/26 03:40:12;;;;;;;16.67;11.68;;;;;;;6.87;100.00;154257.38;5003011;28;20045;-73
2022/10/26 03:42:38;;;;;;;24.73;12.95;;;;;;;6.86;100.00;154253.59;5005150;28;20045;-73
2022/10/26 03:45:05;;;;;;;19.90;12.63;;;;;;;6.91;100.00;154267.66;5000389;28;20093;-73
2022/10/26 03:47:31;;;;;;;19.17;13.55;;;;;;;6.95;100.00;154277.88;4999550;28;20049;-73
2022/10/26 03:49:58;;;;;;;14.02;11.93;;;;;;;6.93;100.00;154272.78;4998889;28;20042;-72
2022/10/26 03:52:23;;;;;;;19.30;13.82;;;;;;;6.96;100.00;154280.44;5017517;28;20045;-73
2022/10/26 03:54:50;;;;;;;23.08;13.85;;;;;;;6.97;100.00;154283.00;4996237;28;20056;-73
2022/10/26 03:57:16;;;;;;;22.20;14.13;;;;;;;6.97;100.00;154283.00;4987705;28;20394;-73
2022/10/26 03:59:42;;;;;;;17.88;13.57;;;;;;;6.99;100.00;154286.84;4988016;28;20030;-73
2022/10/26 04:02:08;;;;;;;21.10;13.70;;;;;;;6.98;100.00;154285.53;5000331;28;20093;-73
2022/10/26 04:04:33;;;;;;;20.27;13.63;;;;;;;6.97;100.00;154283.00;4995037;28;20156;-72
2022/10/26 04:06:59;;;;;;;21.35;14.23;;;;;;;6.95;100.00;154277.88;4995537;28;20045;-74
2022/10/26 04:09:25;;;;;;;21.42;14.90;;;;;;;6.96;100.00;154280.44;5007246;28;20022;-72
2022/10/26 04:11:50;;;;;;;33.83;15.70;;;;;;;6.96;100.00;154280.44;5008371;28;20052;-74
2022/10/26 04:14:16;;;;;;;24.60;15.93;;;;;;;6.97;100.00;154281.75;4991263;28;20030;-72
2022/10/26 04:16:42;;;;;;;38.25;16.63;;;;;;;6.96;100.00;154279.16;4989497;28;20045;-74
2022/10/26 04:19:08;;;;;;;28.20;16.02;;;;;;;6.94;100.00;154275.31;4990771;28;20033;-74
2022/10/26 04:21:34;;;;;;;27.90;15.90;;;;;;;6.96;100.00;154279.16;5001716;28;20045;-73
2022/10/26 04:24:00;;;;;;;25.30;15.50;;;;;;;6.96;100.00;154280.44;4991535;28;20034;-73
2022/10/26 04:26:26;;;;;;;23.95;16.42;;;;;;;6.91;100.00;154266.34;5008070;28;20057;-73
2022/10/26 04:28:52;;;;;;;24.80;15.55;;;;;;;6.88;100.00;154259.97;5008402;28;20556;-71
2022/10/26 04:31:18;;;;;;;25.75;16.02;;;;;;;6.85;100.00;154252.28;4996286;28;20042;-73
2022/10/26 04:33:44;;;;;;;35.72;17.23;;;;;;;6.84;100.00;154249.72;5016616;28;20026;-73
2022/10/26 04:36:09;;;;;;;29.65;17.40;;;;;;;6.86;100.00;154254.84;5010791;28;20052;-72
2022/10/26 04:38:35;;;;;;;32.10;18.30;;;;;;;6.86;100.00;154253.59;4997456;28;20034;-73
2022/10/26 04:41:01;;;;;;;59.85;17.42;;;;;;;6.82;100.00;154245.88;5006293;28;20073;-74
2022/10/26 04:43:26;;;;;;;33.88;16.65;;;;;;;6.76;100.00;154229.22;4989276;28;20069;-73
2022/10/26 04:45:56;;;;;;;30.00;15.75;;;;;;;6.79;100.00;154236.94;5006072;28;20045;-71
2022/10/26 04:48:23;;;;;;;24.20;16.15;;;;;;;6.76;100.00;154229.22;5004793;28;20418;-73
2022/10/26 04:50:48;;;;;;;49.10;17.90;;;;;;;6.86;100.00;154253.59;5006041;28;20107;-75
2022/10/26 04:53:14;;;;;;;35.58;19.50;;;;;;;6.87;100.00;154256.13;5007834;28;20526;-73
2022/10/26 04:55:40;;;;;;;32.35;19.00;;;;;;;6.87;100.00;154256.13;5020273;28;20506;-73
2022/10/26 04:58:06;;;;;;;39.47;18.95;;;;;;;6.89;100.00;154262.50;5002113;28;20034;-72
2022/10/26 05:00:33;;;;;;;33.05;19.60;;;;;;;6.89;100.00;154261.22;4990728;28;20511;-74
2022/10/26 05:03:00;;;;;;;28.33;17.92;;;;;;;6.91;100.00;154267.66;4982765;28;20049;-74
2022/10/26 05:05:26;;;;;;;34.40;18.55;;;;;;;6.91;100.00;154267.66;5007730;28;20889;-74
2022/10/26 05:07:55;;;;;;;46.00;18.25;;;;;;;6.90;100.00;154263.81;5022036;28;20048;-73
2022/10/26 05:10:21;;;;;;;38.80;19.77;;;;;;;6.92;100.00;154270.19;5008115;28;20048;-74
2022/10/26 05:12:55;;;;;;;41.88;19.58;;;;;;;6.94;100.00;154275.31;5029985;28;20041;-73
2022/10/26 05:15:21;;;;;;;28.52;18.70;;;;;;;6.94;100.00;154275.31;5031577;28;20045;-73
2022/10/26 05:17:53;;;;;;;28.88;18.27;;;;;;;6.98;100.00;154284.28;5018314;28;20041;-73
2022/10/26 05:20:19;;;;;;;36.40;20.55;;;;;;;6.95;100.00;154276.56;5011848;28;20025;-73
2022/10/26 05:22:51;;;;;;;33.92;19.70;;;;;;;6.95;100.00;154276.56;4991942;28;20041;-72
2022/10/26 05:25:17;;;;;;;41.35;20.30;;;;;;;6.94;100.00;154274.03;5015900;28;20049;-73
2022/10/26 05:27:42;;;;;;;36.63;21.15;;;;;;;6.91;100.00;154266.34;5024386;28;20065;-73
2022/10/26 05:30:09;;;;;;;39.97;21.38;;;;;;;6.91;100.00;154266.34;4999098;28;20043;-73
2022/10/26 05:32:34;;;;;;;35.45;19.90;;;;;;;6.91;100.00;154266.34;5026690;28;20124;-73
2022/10/26 05:35:00;;;;;;;36.55;20.60;;;;;;;6.90;100.00;154263.81;5021813;28;20045;-73
2022/10/26 05:37:28;;;;;;;33.85;19.50;;;;;;;6.90;100.00;154263.81;5020611;28;20033;-73
2022/10/26 05:39:54;;;;;;;33.22;19.80;;;;;;;6.89;100.00;154262.50;5023209;28;20042;-72
2022/10/26 05:42:20;;;;;;;37.92;20.77;;;;;;;6.87;100.00;154257.38;5014565;28;20466;-73
2022/10/26 05:44:45;;;;;;;32.60;20.35;;;;;;;6.86;100.00;154254.84;5009694;28;20069;-73
2022/10/26 05:47:12;;;;;;;33.67;20.08;;;;;;;6.85;100.00;154251.00;5023645;28;20115;-73
2022/10/26 05:49:37;;;;;;;37.20;20.80;;;;;;;6.86;100.00;154254.84;5017867;28;20092;-72
2022/10/26 05:52:03;;;;;;;35.78;21.60;;;;;;;6.87;100.00;154257.38;5009788;28;20071;-73
2022/10/26 05:54:29;;;;;;;33.60;20.10;;;;;;;6.88;100.00;154258.69;5008684;28;20042;-73
2022/10/26 05:56:55;;;;;;;38.35;20.08;;;;;;;6.79;100.00;154238.19;5029715;28;20428;-73
2022/10/26 05:59:21;;;;;;;37.22;20.50;;;;;;;6.77;100.00;154233.06;5042958;28;20490;-73
2022/10/26 06:02:02;;;;;;;39.35;20.58;;;;;;;6.77;100.00;154233.06;4995162;28;20059;-73
2022/10/26 06:04:42;;;;;;;39.92;20.98;;;;;;;6.82;100.00;154245.88;5006758;28;20033;-73
2022/10/26 06:07:15;;;;;;;33.45;19.58;;;;;;;6.84;100.00;154249.72;5017217;28;20051;-72
2022/10/26 06:09:42;;;;;;;37.45;21.25;;;;;;;6.83;100.00;154247.16;5014092;28;20038;-72
2022/10/26 06:12:10;;;;;;;39.67;20.95;;;;;;;6.80;100.00;154239.50;5016915;28;20034;-73
2022/10/26 06:14:36;;;;;;;34.58;20.67;;;;;;;6.77;100.00;154231.81;5005611;28;20140;-73
2022/10/26 06:17:23;;;;;;;33.42;19.17;;;;;;;6.72;100.00;154219.00;5015007;28;20045;-73
2022/10/26 06:20:07;;;;;;;49.63;21.48;;;;;;;6.70;100.00;154215.16;5014720;28;20166;-73
2022/10/26 06:23:10;;;;;;;31.67;20.23;;;;;;;6.70;100.00;154215.16;5019615;28;20607;-73
2022/10/26 06:26:01;;;;;;;43.42;28.95;;;;;;;6.68;100.00;154208.78;5009177;28;20622;-73
2022/10/26 06:28:44;;;;;;;37.97;21.17;;;;;;;6.72;100.00;154219.00;5007419;28;20479;-73
2022/10/26 06:31:13;;;;;;;37.70;20.75;;;;;;;6.70;100.00;154215.16;5024496;28;20129;-72
2022/10/26 06:33:39;;;;;;;32.90;20.42;;;;;;;6.72;100.00;154220.28;5023776;28;20144;-73
2022/10/26 06:36:22;;;;;;;33.70;20.15;;;;;;;6.70;100.00;154213.88;5023236;28;20091;-73
2022/10/26 06:38:53;;;;;;;38.60;21.13;;;;;;;6.69;100.00;154211.34;5020728;28;20060;-73
2022/10/26 06:41:21;;;;;;;35.22;20.45;;;;;;;6.76;100.00;154230.53;5022366;28;20033;-73
2022/10/26 06:43:47;;;;;;;32.53;21.00;;;;;;;6.75;100.00;154227.97;5036701;28;20042;-73
2022/10/26 06:46:40;;;;;;;32.65;21.60;;;;;;;6.78;100.00;154234.34;5013666;28;20037;-73
2022/10/26 06:49:18;;;;;;;38.08;22.60;;;;;;;6.85;100.00;154251.00;5033943;28;20952;-73
2022/10/26 06:51:56;;;;;;;38.65;21.35;;;;;;;6.84;100.00;154249.72;5015409;28;20144;-73
2022/10/26 06:54:30;;;;;;;34.60;22.83;;;;;;;6.89;100.00;154261.22;5029180;28;20125;-72
2022/10/26 06:56:56;;;;;;;36.65;22.77;;;;;;;6.90;100.00;154265.09;5011470;28;20052;-73
2022/10/26 06:59:37;;;;;;;34.80;21.45;;;;;;;6.99;100.00;154288.13;5011859;28;20034;-73
2022/10/26 07:02:03;;;;;;;37.45;22.58;;;;;;;6.98;100.00;154285.53;5005909;28;20666;-73
2022/10/26 07:04:28;;;;;;;39.33;23.40;;;;;;;7.01;100.00;154293.25;5011614;28;20497;-73
2022/10/26 07:06:55;;;;;;;36.47;22.70;;;;;;;7.06;100.00;154303.47;5005621;28;20036;-73
2022/10/26 07:09:21;;;;;;;37.20;22.88;;;;;;;7.12;100.00;154318.81;5014421;28;20070;-73
2022/10/26 07:11:47;;;;;;;38.35;22.67;;;;;;;7.14;100.00;154325.25;5022394;28;20131;-73
2022/10/26 07:14:13;;;;;;;30.10;20.60;;;;;;;7.23;100.00;154346.97;5021264;28;20634;-73
2022/10/26 07:16:39;;;;;;;39.78;22.35;;;;;;;7.30;100.00;154363.66;5000609;28;20045;-73
2022/10/26 07:19:04;;;;;;;30.67;21.05;;;;;;;7.32;100.00;154368.75;5037911;28;20029;-73
2022/10/26 07:21:30;;;;;;;41.78;22.40;;;;;;;7.30;100.00;154363.66;5022864;28;20048;-73
2022/10/26 07:23:56;;;;;;;29.23;19.77;;;;;;;7.35;100.00;154377.72;5010287;28;20061;-73
2022/10/26 07:26:24;;;;;;;37.50;21.30;;;;;;;7.41;100.00;154393.06;4997611;28;20244;-73
2022/10/26 07:28:50;;;;;;;34.15;21.60;;;;;;;7.49;100.00;154411.00;5017143;28;20062;-73
2022/10/26 07:31:16;;;;;;;34.38;21.05;;;;;;;7.48;100.00;154409.75;4999567;28;20045;-73
2022/10/26 07:33:41;;;;;;;31.00;20.77;;;;;;;7.58;100.00;154434.06;5000983;28;20525;-73
2022/10/26 07:36:09;;;;;;;35.55;20.23;;;;;;;7.57;100.00;154431.47;5003644;28;20033;-73
2022/10/26 07:38:36;;;;;;;30.27;20.00;;;;;;;7.64;100.00;154449.41;5017604;28;20117;-73
2022/10/26 07:41:02;;;;;;;26.15;19.27;;;;;;;7.68;100.00;154459.66;4999670;28;20041;-73
2022/10/26 07:43:28;;;;;;;28.10;18.77;;;;;;;7.70;100.00;154464.78;5018979;28;20037;-74
2022/10/26 07:45:54;;;;;;;32.42;20.35;;;;;;;7.75;100.00;154476.31;5020116;28;20037;-73
2022/10/26 07:48:20;;;;;;;29.17;19.70;;;;;;;7.79;100.00;154487.81;5027816;28;20038;-73
2022/10/26 07:50:46;;;;;;;30.00;19.35;;;;;;;7.88;100.00;154508.34;4993941;28;20069;-73
2022/10/26 07:53:12;;;;;;;26.67;19.25;;;;;;;7.91;100.00;154517.31;5019517;28;20092;-73
2022/10/26 07:55:37;;;;;;;28.85;19.42;;;;;;;7.94;100.00;154523.69;5012597;28;20076;-73
2022/10/26 07:58:03;;;;;;;31.70;18.77;;;;;;;7.98;100.00;154533.94;5023369;28;20081;-73
2022/10/26 08:00:29;;;;;;;29.55;18.13;;;;;;;7.99;100.00;154537.78;5019908;28;20464;-73
2022/10/26 08:02:55;;;;;;;27.40;18.35;;;;;;;8.03;100.00;154546.75;5031560;28;20033;-72
2022/10/26 08:05:21;;;;;;;28.85;18.23;;;;;;;8.02;100.00;154542.91;5018018;28;20041;-73
2022/10/26 08:07:47;;;;;;;26.05;18.85;;;;;;;8.05;100.00;154551.88;5012661;28;20077;-73
2022/10/26 08:10:14;;;;;;;28.00;18.92;;;;;;;8.15;100.00;154576.22;5025605;28;20034;-73
2022/10/26 08:12:41;;;;;;;25.83;18.70;;;;;;;8.10;100.00;154563.38;5019158;28;20422;-73
2022/10/26 08:15:08;;;;;;;30.20;19.63;;;;;;;8.09;100.00;154560.84;5024646;28;20037;-73
2022/10/26 08:17:34;;;;;;;29.92;20.38;;;;;;;7.98;100.00;154535.22;4981305;28;20042;-73
2022/10/26 08:19:59;;;;;;;32.25;20.90;;;;;;;7.95;100.00;154526.28;4993963;28;20724;-73
2022/10/26 08:22:29;;;;;;;32.22;22.88;;;;;;;7.98;100.00;154535.22;4993274;28;20048;-73
2022/10/26 08:24:54;;;;;;;35.78;24.23;;;;;;;8.16;100.00;154580.06;5009458;28;20061;-74
2022/10/26 08:27:20;;;;;;;33.22;23.55;;;;;;;8.21;100.00;154591.56;4993045;28;20062;-73
2022/10/26 08:29:46;;;;;;;32.67;23.65;;;;;;;8.32;100.00;154618.47;5009140;28;20096;-74
2022/10/26 08:32:11;;;;;;;34.83;24.52;;;;;;;8.37;100.00;154632.56;5011322;28;20041;-73
2022/10/26 08:34:37;;;;;;;32.75;20.52;;;;;;;8.46;100.00;154653.16;4986234;28;20121;-74
2022/10/26 08:37:03;;;;;;;32.28;21.55;;;;;;;8.53;100.00;154672.38;5005990;28;20030;-73
2022/10/26 08:39:29;;;;;;;31.38;22.38;;;;;;;8.68;100.00;154708.22;4997998;28;20026;-74
2022/10/26 08:42:03;;;;;;;31.25;18.77;;;;;;;8.76;100.00;154728.75;4981688;28;20138;-73
2022/10/26 08:44:32;;;;;;;24.48;18.27;;;;;;;8.82;100.00;154744.09;5005625;28;20042;-73
2022/10/26 08:47:04;;;;;;;28.08;19.40;;;;;;;8.96;100.00;154778.69;5008064;28;20052;-73
2022/10/26 08:49:46;;;;;;;29.20;19.38;;;;;;;9.09;100.00;154810.75;5001088;28;20033;-73
2022/10/26 08:52:16;;;;;;;29.75;18.90;;;;;;;9.20;100.00;154838.94;5005669;28;20040;-73
2022/10/26 08:54:53;;;;;;;28.40;18.30;;;;;;;9.29;100.00;154860.75;5004857;28;20069;-73
2022/10/26 08:57:34;;;;;;;27.98;16.63;;;;;;;9.42;100.00;154894.06;5005535;28;20116;-73
2022/10/26 09:00:05;;;;;;;25.25;17.15;;;;;;;9.56;100.00;154928.66;4989343;28;20034;-73
2022/10/26 09:02:31;;;;;;;25.35;17.10;;;;;;;9.69;100.00;154960.75;5000103;28;20073;-73
2022/10/26 09:04:58;;;;;;;24.52;16.27;;;;;;;9.72;100.00;154968.44;5007932;28;20040;-73
2022/10/26 09:07:44;;;;;;;23.15;15.40;;;;;;;9.82;100.00;154994.06;5000750;28;20112;-73
2022/10/26 09:10:18;;;;;;;18.73;14.02;;;;;;;9.94;100.00;155024.88;4996459;28;20048;-73
2022/10/26 09:13:02;;;;;;;21.90;14.38;;;;;;;10.08;100.00;155059.47;5008806;28;20042;-73
2022/10/26 09:15:45;;;;;;;23.30;15.55;;;;;;;10.17;100.00;155081.31;5001056;28;20026;-73
2022/10/26 09:18:46;;;;;;;21.10;15.40;;;;;;;10.20;100.00;155088.97;4993746;28;20030;-73
2022/10/26 09:21:45;;;;;;;19.10;14.90;;;;;;;10.37;100.00;155130.06;5002206;28;20554;-73
2022/10/26 09:24:24;;;;;;;22.20;15.43;;;;;;;10.52;100.00;155169.81;5017689;28;20517;-73
2022/10/26 09:26:58;;;;;;;19.80;14.30;;;;;;;10.57;100.00;155180.06;4989879;28;20046;-73
2022/10/26 09:29:31;;;;;;;17.80;12.80;;;;;;;10.66;100.00;155204.50;4990888;28;20050;-72
2022/10/26 09:32:00;;;;;;;16.08;12.60;;;;;;;10.71;100.00;155216.03;5004469;28;20076;-73
2022/10/26 09:34:38;;;;;;;21.50;13.50;;;;;;;10.90;100.00;155264.75;4991092;28;20065;-73
2022/10/26 09:37:24;;;;;;;16.17;11.77;;;;;;;10.95;100.00;155275.06;5006352;28;20506;-73
2022/10/26 09:40:17;;;;;;;16.60;12.27;;;;;;;11.10;100.00;155313.56;5004289;28;20036;-73
2022/10/26 09:43:19;;;;;;;15.73;10.68;;;;;;;11.18;100.00;155332.81;5001142;28;20053;-73
2022/10/26 09:45:49;;;;;;;17.13;10.93;;;;;;;11.27;100.00;155357.19;5007407;28;20076;-73
2022/10/26 09:48:21;;;;;;;14.98;11.00;;;;;;;11.43;100.00;155397.00;5007644;28;20040;-73
2022/10/26 09:50:48;;;;;;;17.00;11.10;;;;;;;11.53;100.00;155421.38;4979641;28;20466;-73
2022/10/26 09:53:15;;;;;;;12.75;10.85;;;;;;;11.65;100.00;155450.91;5001112;28;20084;-73
2022/10/26 09:55:45;;;;;;;16.83;10.35;;;;;;;11.75;100.00;155475.28;5006782;28;20661;-73
2022/10/26 09:58:19;;;;;;;15.68;10.90;;;;;;;11.77;100.00;155480.41;5022907;28;20046;-73
2022/10/26 10:00:46;;;;;;;14.57;10.45;;;;;;;11.90;100.00;155512.56;4991075;28;20053;-73
2022/10/26 10:03:23;;;;;;;15.50;9.88;;;;;;;11.94;100.00;155522.81;5007767;28;20559;-72
2022/10/26 10:05:49;;;;;;;12.90;9.23;;;;;;;12.07;100.00;155556.22;5009099;28;20430;-73
2022/10/26 10:08:25;;;;;;;13.02;9.57;;;;;;;12.07;100.00;155557.53;5000535;28;20048;-73
2022/10/26 10:11:10;;;;;;;12.02;8.85;;;;;;;12.17;100.00;155580.66;5016264;28;20053;-72
2022/10/26 10:13:38;;;;;;;15.45;9.07;;;;;;;12.37;100.00;155630.72;5003668;28;20084;-72
2022/10/26 10:16:06;;;;;;;13.15;9.38;;;;;;;12.49;100.00;155661.56;4989648;28;20092;-72
2022/10/26 10:18:34;;;;;;;13.50;9.52;;;;;;;12.54;100.00;155674.38;4989085;28;20054;-72
2022/10/26 10:21:00;;;;;;;14.05;9.05;;;;;;;12.69;100.00;155710.34;5000804;28;20050;-73
2022/10/26 10:23:32;;;;;;;16.67;8.98;;;;;;;12.83;100.00;155746.34;4989844;28;20108;-71
2022/10/26 10:26:00;;;;;;;9.70;8.27;;;;;;;12.90;100.00;155763.03;4983268;28;20043;-72
2022/10/26 10:28:27;;;;;;;14.50;8.45;;;;;;;12.92;100.00;155769.47;4990530;28;20048;-72
2022/10/26 10:31:16;;;;;;;10.73;8.02;;;;;;;13.00;100.00;155788.75;4990641;28;20141;-72
2022/10/26 10:33:44;;;;;;;14.30;8.20;;;;;;;13.14;100.00;155824.69;4979297;28;20049;-73
2022/10/26 10:36:15;;;;;;;12.50;8.30;;;;;;;13.13;100.00;155822.16;5004137;28;20042;-73
2022/10/26 10:38:43;;;;;;;15.70;8.30;;;;;;;13.16;100.00;155829.81;5003799;28;20116;-73
2022/10/26 10:41:24;;;;;;;13.68;8.50;;;;;;;13.22;100.00;155845.28;5003399;28;20061;-73
2022/10/26 10:44:04;;;;;;;12.77;8.10;;;;;;;13.32;100.00;155868.47;4986748;28;20161;-73
2022/10/26 10:46:30;;;;;;;17.48;8.35;;;;;;;13.46;100.00;155903.16;4980599;28;20041;-72
2022/10/26 10:49:04;;;;;;;11.88;8.07;;;;;;;13.51;100.00;155917.28;4988476;28;20042;-73
2022/10/26 10:51:39;;;;;;;13.00;7.57;;;;;;;13.58;100.00;155933.97;4991290;28;20046;-72
2022/10/26 10:54:19;;;;;;;12.15;7.38;;;;;;;13.66;100.00;155953.28;4986584;28;20113;-74
2022/10/26 10:56:53;;;;;;;12.43;7.30;;;;;;;13.80;100.00;155990.53;5023202;28;20550;-73
2022/10/26 10:59:40;;;;;;;10.07;7.15;;;;;;;13.90;100.00;156015.00;4990194;28;20058;-73
2022/10/26 11:02:42;;;;;;;9.10;7.07;;;;;;;14.04;100.00;156049.69;5002805;28;20068;-73
2022/10/26 11:05:46;;;;;;;9.87;6.83;;;;;;;14.21;100.00;156092.13;5003781;28;20034;-73
2022/10/26 11:08:37;;;;;;;9.80;6.70;;;;;;;14.40;100.00;156139.69;4980002;28;20426;-73
2022/10/26 11:11:11;;;;;;;12.07;6.75;;;;;;;14.57;100.00;156182.19;5000049;28;20038;-74
2022/10/26 11:13:58;;;;;;;13.23;5.68;;;;;;;14.60;100.00;156189.91;4984606;28;20042;-73
2022/10/26 11:16:33;;;;;;;10.73;5.47;;;;;;;14.49;100.00;156161.56;4981017;28;20060;-73
2022/10/26 11:19:33;;;;;;;8.73;5.25;;;;;;;14.39;100.00;156138.41;4988888;28;20058;-73
2022/10/26 11:22:02;;;;;;;9.57;4.80;;;;;;;14.49;100.00;156161.56;4997957;28;20177;-73
2022/10/26 11:24:51;;;;;;;6.03;3.50;;;;;;;14.56;100.00;156180.88;4995826;28;20026;-73
2022/10/26 11:27:17;;;;;;;10.23;2.80;;;;;;;14.77;100.00;156233.63;5001678;28;20458;-73